sensor_id;sensor_type;location;lat;lon;timestamp;pressure;altitude;pressure_sealevel;temperature;humidity
43436;BME280;36399;51.444;-2.018;2023-01-27T00:28:57;102335.59;;;1.67;100.00
43436;BME280;36399;51.444;-2.018;2023-01-27T01:28:30;102337.84;;;0.26;100.00
43436;BME280;36399;51.444;-2.018;2023-01-27T01:31:04;102329.44;;;0.18;100.00
43436;BME280;36399;51.444;-2.018;2023-01-27T03:38:09;102357.09;;;-0.50;100.00
43436;BME280;36399;51.444;-2.018;2023-01-27T03:40:56;102369.25;;;-0.39;100.00
43436;BME280;36399;51.444;-2.018;2023-01-27T03:43:41;102374.81;;;-0.35;100.00
43436;BME280;36399;51.444;-2.018;2023-01-27T03:46:25;102366.72;;;-0.19;100.00
43436;BME280;36399;51.444;-2.018;2023-01-27T03:59:29;102367.03;;;0.25;100.00
43436;BME280;36399;51.444;-2.018;2023-01-27T04:01:59;102363.16;;;0.30;100.00
43436;BME280;36399;51.444;-2.018;2023-01-27T04:35:38;102349.59;;;1.05;100.00
43436;BME280;36399;51.444;-2.018;2023-01-27T05:14:30;102340.25;;;1.39;100.00
43436;BME280;36399;51.444;-2.018;2023-01-27T05:16:57;102340.78;;;1.35;100.00
43436;BME280;36399;51.444;-2.018;2023-01-27T05:24:34;102340.38;;;1.41;100.00
43436;BME280;36399;51.444;-2.018;2023-01-27T05:38:06;102340.97;;;1.26;100.00
43436;BME280;36399;51.444;-2.018;2023-01-27T05:54:03;102335.81;;;1.48;100.00
43436;BME280;36399;51.444;-2.018;2023-01-27T06:38:47;102324.75;;;1.61;100.00
43436;BME280;36399;51.444;-2.018;2023-01-27T08:25:20;102397.91;;;1.80;100.00
43436;BME280;36399;51.444;-2.018;2023-01-27T15:49:02;102209.53;;;4.85;100.00
43436;BME280;36399;51.444;-2.018;2023-01-27T16:07:29;102210.13;;;4.68;100.00
43436;BME280;36399;51.444;-2.018;2023-01-27T16:09:57;102208.03;;;4.62;100.00
43436;BME280;36399;51.444;-2.018;2023-01-27T19:03:53;102375.16;;;-0.79;100.00
43436;BME280;36399;51.444;-2.018;2023-01-27T19:06:27;102378.09;;;-0.85;100.00
43436;BME280;36399;51.444;-2.018;2023-01-27T19:08:56;102380.22;;;-0.71;100.00
43436;BME280;36399;51.444;-2.018;2023-01-27T19:11:25;102387.47;;;-0.67;100.00
43436;BME280;36399;51.444;-2.018;2023-01-27T19:13:52;102383.34;;;-0.65;100.00
43436;BME280;36399;51.444;-2.018;2023-01-27T19:16:21;102392.56;;;-0.77;100.00
43436;BME280;36399;51.444;-2.018;2023-01-27T19:18:47;102392.22;;;-1.00;100.00
43436;BME280;36399;51.444;-2.018;2023-01-27T19:21:16;102384.81;;;-1.24;100.00
43436;BME280;36399;51.444;-2.018;2023-01-27T19:23:42;102396.44;;;-1.19;100.00
43436;BME280;36399;51.444;-2.018;2023-01-27T19:26:19;102398.94;;;-1.11;100.00
43436;BME280;36399;51.444;-2.018;2023-01-27T19:28:55;102396.66;;;-1.27;100.00
43436;BME280;36399;51.444;-2.018;2023-01-27T19:31:22;102411.22;;;-1.46;100.00
43436;BME280;36399;51.444;-2.018;2023-01-27T19:33:59;102407.84;;;-1.64;100.00
43436;BME280;36399;51.444;-2.018;2023-01-27T19:36:29;102414.91;;;-1.80;100.00
43436;BME280;36399;51.444;-2.018;2023-01-27T19:41:36;102430.44;;;-1.97;100.00
43436;BME280;36399;51.444;-2.018;2023-01-27T19:44:03;102430.78;;;-2.03;100.00
43436;BME280;36399;51.444;-2.018;2023-01-27T19:46:30;102439.59;;;-2.18;100.00
43436;BME280;36399;51.444;-2.018;2023-01-27T19:48:58;102439.25;;;-2.12;100.00
43436;BME280;36399;51.444;-2.018;2023-01-27T19:51:24;102429.66;;;-2.32;100.00
43436;BME280;36399;51.444;-2.018;2023-01-27T19:53:51;102451.69;;;-2.17;100.00
43436;BME280;36399;51.444;-2.018;2023-01-27T19:56:20;102451.06;;;-2.06;100.00
43436;BME280;36399;51.444;-2.018;2023-01-27T19:58:52;102446.97;;;-2.04;100.00
43436;BME280;36399;51.444;-2.018;2023-01-27T20:01:20;102454.66;;;-1.95;100.00
43436;BME280;36399;51.444;-2.018;2023-01-27T20:03:48;102459.75;;;-1.86;100.00
43436;BME280;36399;51.444;-2.018;2023-01-27T20:06:29;102455.03;;;-1.82;100.00
43436;BME280;36399;51.444;-2.018;2023-01-27T20:11:40;102457.47;;;-1.83;100.00
43436;BME280;36399;51.444;-2.018;2023-01-27T20:14:17;102459.00;;;-1.85;100.00
43436;BME280;36399;51.444;-2.018;2023-01-27T20:16:44;102458.91;;;-1.96;100.00
43436;BME280;36399;51.444;-2.018;2023-01-27T20:19:15;102468.44;;;-1.95;100.00
43436;BME280;36399;51.444;-2.018;2023-01-27T20:21:42;102468.56;;;-1.93;100.00
43436;BME280;36399;51.444;-2.018;2023-01-27T20:24:15;102464.91;;;-1.86;100.00
43436;BME280;36399;51.444;-2.018;2023-01-27T20:26:42;102466.47;;;-1.97;100.00
43436;BME280;36399;51.444;-2.018;2023-01-27T20:29:08;102468.19;;;-2.06;100.00
43436;BME280;36399;51.444;-2.018;2023-01-27T20:31:37;102465.03;;;-2.21;100.00
43436;BME280;36399;51.444;-2.018;2023-01-27T20:34:03;102467.25;;;-2.51;100.00
43436;BME280;36399;51.444;-2.018;2023-01-27T20:36:29;102465.44;;;-2.70;100.00
43436;BME280;36399;51.444;-2.018;2023-01-27T20:38:58;102466.06;;;-2.81;100.00
43436;BME280;36399;51.444;-2.018;2023-01-27T20:41:30;102464.72;;;-2.95;100.00
43436;BME280;36399;51.444;-2.018;2023-01-27T20:43:57;102475.75;;;-3.04;100.00
43436;BME280;36399;51.444;-2.018;2023-01-27T20:46:26;102477.84;;;-3.09;100.00
43436;BME280;36399;51.444;-2.018;2023-01-27T20:48:53;102473.94;;;-3.05;100.00
43436;BME280;36399;51.444;-2.018;2023-01-27T20:51:19;102483.41;;;-3.22;100.00
43436;BME280;36399;51.444;-2.018;2023-01-27T20:53:46;102483.88;;;-3.26;100.00
43436;BME280;36399;51.444;-2.018;2023-01-27T20:56:17;102485.97;;;-3.30;100.00
43436;BME280;36399;51.444;-2.018;2023-01-27T20:58:44;102493.06;;;-3.36;100.00
43436;BME280;36399;51.444;-2.018;2023-01-27T21:06:22;102491.88;;;-3.31;100.00
43436;BME280;36399;51.444;-2.018;2023-01-27T21:08:49;102492.63;;;-3.32;100.00
43436;BME280;36399;51.444;-2.018;2023-01-27T21:11:19;102489.59;;;-3.28;100.00
43436;BME280;36399;51.444;-2.018;2023-01-27T21:16:47;102495.06;;;-3.17;100.00
43436;BME280;36399;51.444;-2.018;2023-01-27T21:19:14;102490.22;;;-3.22;100.00
43436;BME280;36399;51.444;-2.018;2023-01-27T21:21:41;102496.25;;;-3.22;100.00
43436;BME280;36399;51.444;-2.018;2023-01-27T21:24:14;102493.53;;;-3.32;100.00
43436;BME280;36399;51.444;-2.018;2023-01-27T21:26:40;102492.91;;;-3.38;100.00
43436;BME280;36399;51.444;-2.018;2023-01-27T21:31:42;102500.31;;;-3.41;100.00
43436;BME280;36399;51.444;-2.018;2023-01-27T21:36:58;102497.16;;;-3.30;100.00
43436;BME280;36399;51.444;-2.018;2023-01-27T21:39:24;102500.78;;;-3.19;100.00
43436;BME280;36399;51.444;-2.018;2023-01-27T21:41:51;102505.06;;;-3.11;100.00
43436;BME280;36399;51.444;-2.018;2023-01-27T21:44:22;102494.78;;;-3.02;100.00
43436;BME280;36399;51.444;-2.018;2023-01-27T21:47:09;102503.25;;;-2.95;100.00
43436;BME280;36399;51.444;-2.018;2023-01-27T21:49:37;102505.06;;;-2.94;100.00
43436;BME280;36399;51.444;-2.018;2023-01-27T21:52:28;102515.66;;;-2.99;100.00
43436;BME280;36399;51.444;-2.018;2023-01-27T21:54:55;102513.84;;;-3.00;100.00
43436;BME280;36399;51.444;-2.018;2023-01-27T21:57:21;102515.91;;;-3.13;100.00
43436;BME280;36399;51.444;-2.018;2023-01-27T21:59:50;102520.63;;;-3.09;100.00
43436;BME280;36399;51.444;-2.018;2023-01-27T22:02:16;102518.00;;;-3.18;100.00
43436;BME280;36399;51.444;-2.018;2023-01-27T22:04:43;102513.63;;;-3.28;100.00
43436;BME280;36399;51.444;-2.018;2023-01-27T22:07:11;102521.31;;;-3.28;100.00
43436;BME280;36399;51.444;-2.018;2023-01-27T22:09:39;102517.09;;;-3.36;100.00
43436;BME280;36399;51.444;-2.018;2023-01-27T22:14:41;102511.63;;;-3.39;100.00
43436;BME280;36399;51.444;-2.018;2023-01-27T22:17:12;102514.28;;;-3.04;100.00
43436;BME280;36399;51.444;-2.018;2023-01-27T22:19:42;102516.84;;;-3.04;100.00
43436;BME280;36399;51.444;-2.018;2023-01-27T22:22:11;102521.09;;;-3.05;100.00
43436;BME280;36399;51.444;-2.018;2023-01-27T22:24:39;102530.00;;;-3.01;100.00
43436;BME280;36399;51.444;-2.018;2023-01-27T22:27:09;102530.16;;;-2.91;100.00
43436;BME280;36399;51.444;-2.018;2023-01-27T22:29:35;102521.84;;;-2.89;100.00
43436;BME280;36399;51.444;-2.018;2023-01-27T22:32:07;102537.72;;;-2.84;100.00
43436;BME280;36399;51.444;-2.018;2023-01-27T22:34:33;102532.44;;;-2.77;100.00
43436;BME280;36399;51.444;-2.018;2023-01-27T22:37:00;102533.63;;;-2.73;100.00
43436;BME280;36399;51.444;-2.018;2023-01-27T22:39:26;102541.22;;;-2.58;100.00
43436;BME280;36399;51.444;-2.018;2023-01-27T22:41:52;102536.81;;;-2.50;100.00
43436;BME280;36399;51.444;-2.018;2023-01-27T22:44:19;102539.09;;;-2.44;100.00
43436;BME280;36399;51.444;-2.018;2023-01-27T22:46:51;102537.72;;;-2.41;100.00
43436;BME280;36399;51.444;-2.018;2023-01-27T22:49:20;102539.22;;;-2.34;100.00
43436;BME280;36399;51.444;-2.018;2023-01-27T22:51:46;102537.53;;;-2.25;100.00
43436;BME280;36399;51.444;-2.018;2023-01-27T22:54:13;102539.94;;;-2.18;100.00
43436;BME280;36399;51.444;-2.018;2023-01-27T22:56:45;102536.44;;;-2.10;100.00
43436;BME280;36399;51.444;-2.018;2023-01-27T22:59:11;102536.28;;;-2.03;100.00
43436;BME280;36399;51.444;-2.018;2023-01-27T23:01:39;102539.16;;;-2.08;100.00
43436;BME280;36399;51.444;-2.018;2023-01-27T23:04:05;102538.25;;;-2.09;100.00
43436;BME280;36399;51.444;-2.018;2023-01-27T23:06:32;102529.47;;;-2.11;100.00
43436;BME280;36399;51.444;-2.018;2023-01-27T23:08:58;102532.81;;;-2.12;100.00
43436;BME280;36399;51.444;-2.018;2023-01-27T23:11:24;102530.22;;;-2.12;100.00
43436;BME280;36399;51.444;-2.018;2023-01-27T23:13:50;102536.75;;;-2.07;100.00
43436;BME280;36399;51.444;-2.018;2023-01-27T23:16:17;102542.19;;;-2.04;100.00
43436;BME280;36399;51.444;-2.018;2023-01-27T23:18:46;102545.81;;;-2.02;100.00
43436;BME280;36399;51.444;-2.018;2023-01-27T23:21:12;102547.16;;;-1.97;100.00
43436;BME280;36399;51.444;-2.018;2023-01-27T23:23:39;102543.66;;;-1.88;100.00
43436;BME280;36399;51.444;-2.018;2023-01-27T23:26:09;102545.00;;;-1.83;100.00
43436;BME280;36399;51.444;-2.018;2023-01-27T23:28:37;102546.06;;;-1.81;100.00
43436;BME280;36399;51.444;-2.018;2023-01-27T23:31:07;102539.84;;;-1.83;100.00
43436;BME280;36399;51.444;-2.018;2023-01-27T23:33:36;102533.38;;;-1.88;100.00
43436;BME280;36399;51.444;-2.018;2023-01-27T23:36:02;102536.41;;;-1.93;100.00
43436;BME280;36399;51.444;-2.018;2023-01-27T23:38:32;102527.19;;;-1.99;100.00
43436;BME280;36399;51.444;-2.018;2023-01-27T23:41:02;102527.66;;;-2.12;100.00
43436;BME280;36399;51.444;-2.018;2023-01-27T23:43:29;102529.81;;;-2.25;100.00
43436;BME280;36399;51.444;-2.018;2023-01-27T23:45:56;102533.16;;;-2.26;100.00
43436;BME280;36399;51.444;-2.018;2023-01-27T23:48:25;102533.59;;;-2.30;100.00
43436;BME280;36399;51.444;-2.018;2023-01-27T23:50:54;102530.75;;;-2.33;100.00
43436;BME280;36399;51.444;-2.018;2023-01-27T23:53:23;102529.53;;;-2.37;100.00
43436;BME280;36399;51.444;-2.018;2023-01-27T23:55:57;102521.69;;;-2.38;100.00
43436;BME280;36399;51.444;-2.018;2023-01-27T23:58:24;102518.03;;;-2.40;100.00
